sensor_id;sensor_type;location;lat;lon;timestamp;pressure;altitude;pressure_sealevel;temperature;humidity
57114;BME280;42994;51.606;9.988;2023-02-11T00:01:45;100637.00;;;1.08;100.00
57114;BME280;42994;51.606;9.988;2023-02-11T00:04:11;100644.16;;;1.06;100.00
57114;BME280;42994;51.606;9.988;2023-02-11T00:06:38;100652.19;;;1.04;100.00
57114;BME280;42994;51.606;9.988;2023-02-11T00:09:06;100647.56;;;1.08;100.00
57114;BME280;42994;51.606;9.988;2023-02-11T00:11:33;100639.44;;;1.11;100.00
57114;BME280;42994;51.606;9.988;2023-02-11T00:14:01;100629.84;;;1.10;100.00
57114;BME280;42994;51.606;9.988;2023-02-11T00:16:29;100626.06;;;1.14;100.00
57114;BME280;42994;51.606;9.988;2023-02-11T00:18:58;100626.06;;;1.14;100.00
57114;BME280;42994;51.606;9.988;2023-02-11T00:21:25;100618.22;;;1.12;100.00
57114;BME280;42994;51.606;9.988;2023-02-11T00:23:53;100618.91;;;1.16;100.00
57114;BME280;42994;51.606;9.988;2023-02-11T00:26:24;100615.31;;;1.17;100.00
57114;BME280;42994;51.606;9.988;2023-02-11T00:28:51;100605.59;;;1.18;100.00
57114;BME280;42994;51.606;9.988;2023-02-11T00:31:21;100597.59;;;1.19;100.00
57114;BME280;42994;51.606;9.988;2023-02-11T00:33:49;100591.44;;;1.19;100.00
57114;BME280;42994;51.606;9.988;2023-02-11T00:36:17;100592.31;;;1.19;100.00
57114;BME280;42994;51.606;9.988;2023-02-11T00:38:46;100581.53;;;1.22;100.00
57114;BME280;42994;51.606;9.988;2023-02-11T00:41:15;100578.72;;;1.25;100.00
57114;BME280;42994;51.606;9.988;2023-02-11T00:43:43;100570.44;;;1.31;100.00
57114;BME280;42994;51.606;9.988;2023-02-11T00:46:10;100568.56;;;1.33;100.00
57114;BME280;42994;51.606;9.988;2023-02-11T00:48:37;100573.53;;;1.38;100.00
57114;BME280;42994;51.606;9.988;2023-02-11T00:51:04;100581.56;;;1.51;100.00
57114;BME280;42994;51.606;9.988;2023-02-11T00:53:31;100563.53;;;1.43;100.00
57114;BME280;42994;51.606;9.988;2023-02-11T00:55:58;100573.84;;;1.48;100.00
57114;BME280;42994;51.606;9.988;2023-02-11T00:58:25;100580.88;;;1.47;100.00
57114;BME280;42994;51.606;9.988;2023-02-11T01:00:55;100593.75;;;1.53;100.00
57114;BME280;42994;51.606;9.988;2023-02-11T01:03:23;100585.25;;;1.63;100.00
57114;BME280;42994;51.606;9.988;2023-02-11T01:05:50;100602.03;;;1.62;100.00
57114;BME280;42994;51.606;9.988;2023-02-11T01:08:16;100600.72;;;1.69;100.00
57114;BME280;42994;51.606;9.988;2023-02-11T01:10:43;100596.09;;;1.72;100.00
57114;BME280;42994;51.606;9.988;2023-02-11T01:13:10;100595.50;;;1.67;100.00
57114;BME280;42994;51.606;9.988;2023-02-11T01:15:36;100588.63;;;1.65;100.00
57114;BME280;42994;51.606;9.988;2023-02-11T01:18:05;100604.69;;;1.62;100.00
57114;BME280;42994;51.606;9.988;2023-02-11T01:20:31;100599.88;;;1.68;100.00
57114;BME280;42994;51.606;9.988;2023-02-11T01:22:58;100592.03;;;1.67;100.00
57114;BME280;42994;51.606;9.988;2023-02-11T01:25:25;100590.13;;;1.69;100.00
57114;BME280;42994;51.606;9.988;2023-02-11T01:27:51;100586.75;;;1.67;100.00
57114;BME280;42994;51.606;9.988;2023-02-11T01:30:18;100589.56;;;1.64;100.00
57114;BME280;42994;51.606;9.988;2023-02-11T01:32:46;100586.94;;;1.64;100.00
57114;BME280;42994;51.606;9.988;2023-02-11T01:35:14;100589.28;;;1.68;100.00
57114;BME280;42994;51.606;9.988;2023-02-11T01:37:40;100597.31;;;1.67;100.00
57114;BME280;42994;51.606;9.988;2023-02-11T01:40:12;100584.00;;;1.68;100.00
57114;BME280;42994;51.606;9.988;2023-02-11T01:42:39;100559.47;;;1.66;100.00
57114;BME280;42994;51.606;9.988;2023-02-11T01:48:19;100564.75;;;1.66;100.00
57114;BME280;42994;51.606;9.988;2023-02-11T01:50:51;100568.81;;;1.72;100.00
57114;BME280;42994;51.606;9.988;2023-02-11T01:53:18;100566.25;;;1.85;100.00
57114;BME280;42994;51.606;9.988;2023-02-11T01:56:04;100565.84;;;1.77;100.00
57114;BME280;42994;51.606;9.988;2023-02-11T01:58:49;100584.00;;;1.83;100.00
57114;BME280;42994;51.606;9.988;2023-02-11T02:01:21;100582.34;;;1.95;100.00
57114;BME280;42994;51.606;9.988;2023-02-11T02:03:51;100587.16;;;1.88;100.00
57114;BME280;42994;51.606;9.988;2023-02-11T02:06:26;100575.66;;;1.89;100.00
57114;BME280;42994;51.606;9.988;2023-02-11T02:09:01;100556.41;;;1.87;100.00
57114;BME280;42994;51.606;9.988;2023-02-11T02:11:28;100543.59;;;1.81;100.00
57114;BME280;42994;51.606;9.988;2023-02-11T02:13:55;100546.84;;;1.84;100.00
57114;BME280;42994;51.606;9.988;2023-02-11T02:16:27;100547.72;;;1.85;100.00
57114;BME280;42994;51.606;9.988;2023-02-11T02:19:12;100544.44;;;1.81;100.00
57114;BME280;42994;51.606;9.988;2023-02-11T02:21:56;100539.06;;;1.83;100.00
57114;BME280;42994;51.606;9.988;2023-02-11T02:24:54;100536.41;;;1.83;100.00
57114;BME280;42994;51.606;9.988;2023-02-11T02:27:35;100532.34;;;1.77;100.00
57114;BME280;42994;51.606;9.988;2023-02-11T02:33:13;100534.50;;;1.85;100.00
57114;BME280;42994;51.606;9.988;2023-02-11T02:35:47;100528.25;;;1.86;100.00
57114;BME280;42994;51.606;9.988;2023-02-11T02:38:22;100529.72;;;1.77;100.00
57114;BME280;42994;51.606;9.988;2023-02-11T02:40:53;100550.56;;;1.82;100.00
57114;BME280;42994;51.606;9.988;2023-02-11T02:43:22;100540.81;;;1.82;100.00
57114;BME280;42994;51.606;9.988;2023-02-11T02:45:51;100527.59;;;1.82;100.00
57114;BME280;42994;51.606;9.988;2023-02-11T02:48:28;100539.88;;;1.83;100.00
57114;BME280;42994;51.606;9.988;2023-02-11T02:51:02;100534.78;;;1.80;100.00
57114;BME280;42994;51.606;9.988;2023-02-11T02:53:38;100523.28;;;1.81;100.00
57114;BME280;42994;51.606;9.988;2023-02-11T02:56:13;100521.66;;;1.79;100.00
57114;BME280;42994;51.606;9.988;2023-02-11T02:58:53;100531.41;;;1.78;100.00
57114;BME280;42994;51.606;9.988;2023-02-11T03:01:34;100522.13;;;1.85;100.00
57114;BME280;42994;51.606;9.988;2023-02-11T03:04:09;100526.56;;;1.85;100.00
57114;BME280;42994;51.606;9.988;2023-02-11T03:06:46;100532.88;;;1.82;100.00
57114;BME280;42994;51.606;9.988;2023-02-11T03:09:18;100511.97;;;1.79;100.00
57114;BME280;42994;51.606;9.988;2023-02-11T03:11:47;100502.03;;;1.83;100.00
57114;BME280;42994;51.606;9.988;2023-02-11T03:14:16;100510.91;;;1.82;100.00
57114;BME280;42994;51.606;9.988;2023-02-11T03:16:44;100503.81;;;1.82;100.00
57114;BME280;42994;51.606;9.988;2023-02-11T03:19:16;100481.31;;;1.89;100.00
57114;BME280;42994;51.606;9.988;2023-02-11T03:21:45;100485.19;;;1.84;100.00
57114;BME280;42994;51.606;9.988;2023-02-11T03:24:15;100475.78;;;1.80;100.00
57114;BME280;42994;51.606;9.988;2023-02-11T03:26:46;100475.78;;;1.80;100.00
57114;BME280;42994;51.606;9.988;2023-02-11T03:29:17;100481.47;;;1.73;100.00
57114;BME280;42994;51.606;9.988;2023-02-11T03:31:54;100489.28;;;1.75;100.00
57114;BME280;42994;51.606;9.988;2023-02-11T03:34:30;100488.44;;;1.75;100.00
57114;BME280;42994;51.606;9.988;2023-02-11T03:37:01;100493.63;;;1.76;100.00
57114;BME280;42994;51.606;9.988;2023-02-11T03:39:33;100490.25;;;1.74;100.00
57114;BME280;42994;51.606;9.988;2023-02-11T03:42:03;100492.97;;;1.72;100.00
57114;BME280;42994;51.606;9.988;2023-02-11T03:44:41;100496.47;;;1.73;100.00
57114;BME280;42994;51.606;9.988;2023-02-11T03:47:10;100497.13;;;1.77;100.00
57114;BME280;42994;51.606;9.988;2023-02-11T03:49:41;100489.56;;;1.85;100.00
57114;BME280;42994;51.606;9.988;2023-02-11T03:52:10;100498.13;;;1.88;100.00
57114;BME280;42994;51.606;9.988;2023-02-11T03:54:39;100500.69;;;1.90;100.00
57114;BME280;42994;51.606;9.988;2023-02-11T03:57:07;100494.75;;;1.86;100.00
57114;BME280;42994;51.606;9.988;2023-02-11T03:59:49;100484.81;;;1.90;100.00
57114;BME280;42994;51.606;9.988;2023-02-11T04:02:15;100479.53;;;1.90;100.00
57114;BME280;42994;51.606;9.988;2023-02-11T04:04:44;100455.41;;;1.95;100.00
57114;BME280;42994;51.606;9.988;2023-02-11T04:07:11;100449.38;;;1.92;100.00
57114;BME280;42994;51.606;9.988;2023-02-11T04:09:38;100451.19;;;1.92;100.00
57114;BME280;42994;51.606;9.988;2023-02-11T04:12:05;100449.19;;;1.96;100.00
57114;BME280;42994;51.606;9.988;2023-02-11T04:14:32;100455.63;;;1.91;100.00
57114;BME280;42994;51.606;9.988;2023-02-11T04:16:58;100450.03;;;1.96;100.00
57114;BME280;42994;51.606;9.988;2023-02-11T04:19:25;100465.72;;;1.99;100.00
57114;BME280;42994;51.606;9.988;2023-02-11T04:21:53;100461.16;;;2.01;100.00
57114;BME280;42994;51.606;9.988;2023-02-11T04:24:20;100450.50;;;2.03;100.00
57114;BME280;42994;51.606;9.988;2023-02-11T04:26:46;100458.44;;;2.03;100.00
57114;BME280;42994;51.606;9.988;2023-02-11T04:29:13;100465.59;;;2.01;100.00
57114;BME280;42994;51.606;9.988;2023-02-11T04:31:39;100466.22;;;2.04;100.00
57114;BME280;42994;51.606;9.988;2023-02-11T04:34:06;100472.28;;;2.06;100.00
57114;BME280;42994;51.606;9.988;2023-02-11T04:36:32;100470.59;;;2.05;100.00
57114;BME280;42994;51.606;9.988;2023-02-11T04:39:00;100483.91;;;2.04;100.00
57114;BME280;42994;51.606;9.988;2023-02-11T04:41:27;100491.94;;;2.02;100.00
57114;BME280;42994;51.606;9.988;2023-02-11T04:43:54;100489.50;;;1.99;100.00
57114;BME280;42994;51.606;9.988;2023-02-11T04:46:21;100493.66;;;2.03;100.00
57114;BME280;42994;51.606;9.988;2023-02-11T04:48:47;100497.13;;;2.04;100.00
57114;BME280;42994;51.606;9.988;2023-02-11T04:51:14;100497.03;;;2.05;100.00
57114;BME280;42994;51.606;9.988;2023-02-11T04:53:41;100485.63;;;2.05;100.00
57114;BME280;42994;51.606;9.988;2023-02-11T04:56:09;100493.66;;;2.03;100.00
57114;BME280;42994;51.606;9.988;2023-02-11T04:58:36;100498.19;;;2.01;100.00
57114;BME280;42994;51.606;9.988;2023-02-11T05:01:06;100499.03;;;2.02;100.00
57114;BME280;42994;51.606;9.988;2023-02-11T05:03:33;100505.91;;;2.04;100.00
57114;BME280;42994;51.606;9.988;2023-02-11T05:06:00;100500.84;;;2.01;100.00
57114;BME280;42994;51.606;9.988;2023-02-11T05:08:27;100498.28;;;2.00;100.00
57114;BME280;42994;51.606;9.988;2023-02-11T05:10:53;100495.53;;;2.01;100.00
57114;BME280;42994;51.606;9.988;2023-02-11T05:13:21;100481.56;;;1.99;100.00
57114;BME280;42994;51.606;9.988;2023-02-11T05:15:48;100468.44;;;1.98;100.00
57114;BME280;42994;51.606;9.988;2023-02-11T05:18:15;100476.47;;;1.96;100.00
57114;BME280;42994;51.606;9.988;2023-02-11T05:20:42;100491.50;;;1.96;100.00
57114;BME280;42994;51.606;9.988;2023-02-11T05:23:09;100490.63;;;1.95;100.00
57114;BME280;42994;51.606;9.988;2023-02-11T05:25:36;100491.59;;;1.94;100.00
57114;BME280;42994;51.606;9.988;2023-02-11T05:28:04;100493.50;;;1.92;100.00
57114;BME280;42994;51.606;9.988;2023-02-11T05:30:32;100478.56;;;1.91;100.00
57114;BME280;42994;51.606;9.988;2023-02-11T05:32:58;100478.66;;;1.89;100.00
57114;BME280;42994;51.606;9.988;2023-02-11T05:35:25;100469.91;;;1.89;100.00
57114;BME280;42994;51.606;9.988;2023-02-11T05:37:52;100476.13;;;1.88;100.00
57114;BME280;42994;51.606;9.988;2023-02-11T05:40:18;100467.53;;;1.84;100.00
57114;BME280;42994;51.606;9.988;2023-02-11T05:42:45;100457.81;;;1.85;100.00
57114;BME280;42994;51.606;9.988;2023-02-11T05:45:11;100456.03;;;1.85;100.00
57114;BME280;42994;51.606;9.988;2023-02-11T05:47:39;100452.53;;;1.85;100.00
57114;BME280;42994;51.606;9.988;2023-02-11T05:50:06;100456.88;;;1.86;100.00
57114;BME280;42994;51.606;9.988;2023-02-11T05:52:33;100459.31;;;1.89;100.00
57114;BME280;42994;51.606;9.988;2023-02-11T05:54:59;100453.38;;;1.85;100.00
57114;BME280;42994;51.606;9.988;2023-02-11T05:57:26;100444.50;;;1.86;100.00
57114;BME280;42994;51.606;9.988;2023-02-11T05:59:52;100445.25;;;1.88;100.00
57114;BME280;42994;51.606;9.988;2023-02-11T06:02:19;100449.69;;;1.88;100.00
57114;BME280;42994;51.606;9.988;2023-02-11T06:04:47;100450.97;;;1.95;100.00
57114;BME280;42994;51.606;9.988;2023-02-11T06:07:14;100452.78;;;1.95;100.00
57114;BME280;42994;51.606;9.988;2023-02-11T06:09:41;100458.25;;;1.91;100.00
57114;BME280;42994;51.606;9.988;2023-02-11T06:12:08;100465.91;;;1.96;100.00
57114;BME280;42994;51.606;9.988;2023-02-11T06:14:35;100474.78;;;1.95;100.00
57114;BME280;42994;51.606;9.988;2023-02-11T06:17:02;100479.78;;;2.00;100.00
57114;BME280;42994;51.606;9.988;2023-02-11T06:19:28;100477.03;;;2.01;100.00
57114;BME280;42994;51.606;9.988;2023-02-11T06:21:56;100462.31;;;1.97;100.00
57114;BME280;42994;51.606;9.988;2023-02-11T06:24:23;100452.34;;;2.01;100.00
57114;BME280;42994;51.606;9.988;2023-02-11T06:26:50;100447.94;;;2.01;100.00
57114;BME280;42994;51.606;9.988;2023-02-11T06:29:17;100459.81;;;2.08;100.00
57114;BME280;42994;51.606;9.988;2023-02-11T06:31:43;100453.47;;;2.11;100.00
57114;BME280;42994;51.606;9.988;2023-02-11T06:34:10;100447.34;;;2.10;100.00
57114;BME280;42994;51.606;9.988;2023-02-11T06:36:38;100446.91;;;2.17;100.00
57114;BME280;42994;51.606;9.988;2023-02-11T06:39:06;100454.09;;;2.15;100.00
57114;BME280;42994;51.606;9.988;2023-02-11T06:41:33;100445.22;;;2.16;100.00
57114;BME280;42994;51.606;9.988;2023-02-11T06:43:59;100444.50;;;2.14;100.00
57114;BME280;42994;51.606;9.988;2023-02-11T06:46:26;100446.91;;;2.17;100.00
57114;BME280;42994;51.606;9.988;2023-02-11T06:48:53;100438.97;;;2.17;100.00
57114;BME280;42994;51.606;9.988;2023-02-11T06:51:19;100434.66;;;2.16;100.00
57114;BME280;42994;51.606;9.988;2023-02-11T06:53:46;100433.03;;;2.13;100.00
57114;BME280;42994;51.606;9.988;2023-02-11T06:56:16;100436.56;;;2.14;100.00
57114;BME280;42994;51.606;9.988;2023-02-11T06:58:43;100435.78;;;2.11;100.00
57114;BME280;42994;51.606;9.988;2023-02-11T07:01:12;100429.13;;;2.19;100.00
57114;BME280;42994;51.606;9.988;2023-02-11T07:03:39;100421.44;;;2.16;100.00
57114;BME280;42994;51.606;9.988;2023-02-11T07:06:07;100424.81;;;2.18;100.00
57114;BME280;42994;51.606;9.988;2023-02-11T07:08:37;100425.56;;;2.20;100.00
57114;BME280;42994;51.606;9.988;2023-02-11T07:11:08;100435.16;;;2.21;100.00
57114;BME280;42994;51.606;9.988;2023-02-11T07:13:36;100444.72;;;2.23;100.00
57114;BME280;42994;51.606;9.988;2023-02-11T07:16:04;100433.38;;;2.21;100.00
57114;BME280;42994;51.606;9.988;2023-02-11T07:18:31;100439.63;;;2.20;100.00
57114;BME280;42994;51.606;9.988;2023-02-11T07:20:58;100443.97;;;2.21;100.00
57114;BME280;42994;51.606;9.988;2023-02-11T07:23:25;100448.19;;;2.24;100.00
57114;BME280;42994;51.606;9.988;2023-02-11T07:25:51;100435.50;;;2.29;100.00
57114;BME280;42994;51.606;9.988;2023-02-11T07:28:18;100446.63;;;2.34;100.00
57114;BME280;42994;51.606;9.988;2023-02-11T07:30:46;100440.09;;;2.40;100.00
57114;BME280;42994;51.606;9.988;2023-02-11T07:33:12;100450.75;;;2.38;100.00
57114;BME280;42994;51.606;9.988;2023-02-11T07:35:39;100445.03;;;2.44;100.00
57114;BME280;42994;51.606;9.988;2023-02-11T07:38:05;100443.78;;;2.50;100.00
57114;BME280;42994;51.606;9.988;2023-02-11T07:40:32;100458.41;;;2.56;100.00
57114;BME280;42994;51.606;9.988;2023-02-11T07:42:59;100452.34;;;2.54;100.00
57114;BME280;42994;51.606;9.988;2023-02-11T07:45:26;100460.00;;;2.58;100.00
57114;BME280;42994;51.606;9.988;2023-02-11T07:47:54;100454.41;;;2.63;100.00
57114;BME280;42994;51.606;9.988;2023-02-11T07:50:20;100455.97;;;2.65;100.00
57114;BME280;42994;51.606;9.988;2023-02-11T07:52:47;100460.53;;;2.63;100.00
57114;BME280;42994;51.606;9.988;2023-02-11T07:55:13;100455.16;;;2.65;100.00
57114;BME280;42994;51.606;9.988;2023-02-11T07:57:40;100459.28;;;2.69;100.00
57114;BME280;42994;51.606;9.988;2023-02-11T08:00:07;100450.34;;;2.70;100.00
57114;BME280;42994;51.606;9.988;2023-02-11T08:02:37;100456.41;;;2.72;100.00
57114;BME280;42994;51.606;9.988;2023-02-11T08:05:05;100450.16;;;2.86;100.00
57114;BME280;42994;51.606;9.988;2023-02-11T08:07:32;100455.03;;;2.79;100.00
57114;BME280;42994;51.606;9.988;2023-02-11T08:09:59;100455.44;;;2.86;100.00
57114;BME280;42994;51.606;9.988;2023-02-11T08:12:25;100458.44;;;2.81;100.00
57114;BME280;42994;51.606;9.988;2023-02-11T08:14:52;100468.78;;;2.84;100.00
57114;BME280;42994;51.606;9.988;2023-02-11T08:17:19;100464.34;;;2.85;100.00
57114;BME280;42994;51.606;9.988;2023-02-11T08:19:46;100465.19;;;2.85;100.00
57114;BME280;42994;51.606;9.988;2023-02-11T08:22:14;100473.97;;;2.86;100.00
57114;BME280;42994;51.606;9.988;2023-02-11T08:24:40;100459.91;;;2.85;100.00
57114;BME280;42994;51.606;9.988;2023-02-11T08:27:07;100462.44;;;2.87;100.00
57114;BME280;42994;51.606;9.988;2023-02-11T08:29:33;100459.81;;;2.87;100.00
57114;BME280;42994;51.606;9.988;2023-02-11T08:32:00;100463.38;;;2.86;100.00
57114;BME280;42994;51.606;9.988;2023-02-11T08:34:27;100472.31;;;2.85;100.00
57114;BME280;42994;51.606;9.988;2023-02-11T08:36:54;100461.56;;;2.86;100.00
57114;BME280;42994;51.606;9.988;2023-02-11T08:39:22;100471.34;;;2.86;100.00
57114;BME280;42994;51.606;9.988;2023-02-11T08:41:50;100466.69;;;2.89;100.00
57114;BME280;42994;51.606;9.988;2023-02-11T08:44:18;100465.00;;;2.88;100.00
57114;BME280;42994;51.606;9.988;2023-02-11T08:46:45;100462.00;;;2.93;100.00
57114;BME280;42994;51.606;9.988;2023-02-11T08:49:13;100464.66;;;2.93;100.00
57114;BME280;42994;51.606;9.988;2023-02-11T08:51:40;100463.63;;;2.96;100.00
57114;BME280;42994;51.606;9.988;2023-02-11T08:54:06;100471.22;;;3.00;100.00
57114;BME280;42994;51.606;9.988;2023-02-11T08:56:35;100471.56;;;3.08;100.00
57114;BME280;42994;51.606;9.988;2023-02-11T08:59:02;100476.97;;;3.07;100.00
57114;BME280;42994;51.606;9.988;2023-02-11T09:01:30;100482.34;;;3.05;100.00
57114;BME280;42994;51.606;9.988;2023-02-11T09:03:57;100470.47;;;3.11;100.00
57114;BME280;42994;51.606;9.988;2023-02-11T09:06:26;100471.41;;;3.10;100.00
57114;BME280;42994;51.606;9.988;2023-02-11T09:08:55;100468.91;;;3.08;100.00
57114;BME280;42994;51.606;9.988;2023-02-11T09:11:25;100472.19;;;3.12;100.00
57114;BME280;42994;51.606;9.988;2023-02-11T09:13:53;100485.31;;;3.14;100.00
57114;BME280;42994;51.606;9.988;2023-02-11T09:16:22;100492.09;;;3.18;100.00
57114;BME280;42994;51.606;9.988;2023-02-11T09:18:49;100485.09;;;3.17;100.00
57114;BME280;42994;51.606;9.988;2023-02-11T09:21:17;100491.75;;;3.22;100.00
57114;BME280;42994;51.606;9.988;2023-02-11T09:23:44;100485.63;;;3.22;100.00
57114;BME280;42994;51.606;9.988;2023-02-11T09:26:14;100491.22;;;3.17;100.00
57114;BME280;42994;51.606;9.988;2023-02-11T09:28:41;100494.41;;;3.22;100.00
57114;BME280;42994;51.606;9.988;2023-02-11T09:31:11;100502.47;;;3.21;100.00
57114;BME280;42994;51.606;9.988;2023-02-11T09:33:39;100502.16;;;3.25;100.00
57114;BME280;42994;51.606;9.988;2023-02-11T09:36:14;100503.84;;;3.26;100.00
57114;BME280;42994;51.606;9.988;2023-02-11T09:38:41;100500.34;;;3.26;100.00
57114;BME280;42994;51.606;9.988;2023-02-11T09:41:24;100501.19;;;3.26;100.00
57114;BME280;42994;51.606;9.988;2023-02-11T09:43:55;100506.91;;;3.33;100.00
57114;BME280;42994;51.606;9.988;2023-02-11T09:46:24;100491.44;;;3.40;100.00
57114;BME280;42994;51.606;9.988;2023-02-11T09:48:53;100497.66;;;3.39;100.00
57114;BME280;42994;51.606;9.988;2023-02-11T09:51:30;100499.59;;;3.37;100.00
57114;BME280;42994;51.606;9.988;2023-02-11T09:54:03;100508.59;;;3.47;100.00
57114;BME280;42994;51.606;9.988;2023-02-11T09:56:30;100516.03;;;3.42;100.00
57114;BME280;42994;51.606;9.988;2023-02-11T09:58:57;100518.56;;;3.43;100.00
57114;BME280;42994;51.606;9.988;2023-02-11T10:01:29;100521.72;;;3.49;100.00
57114;BME280;42994;51.606;9.988;2023-02-11T10:04:06;100533.09;;;3.51;100.00
57114;BME280;42994;51.606;9.988;2023-02-11T10:06:42;100537.31;;;3.53;100.00
57114;BME280;42994;51.606;9.988;2023-02-11T10:09:27;100538.03;;;3.55;100.00
57114;BME280;42994;51.606;9.988;2023-02-11T10:12:02;100547.81;;;3.55;100.00
57114;BME280;42994;51.606;9.988;2023-02-11T10:14:51;100546.72;;;3.57;100.00
57114;BME280;42994;51.606;9.988;2023-02-11T10:17:28;100557.97;;;3.61;100.00
57114;BME280;42994;51.606;9.988;2023-02-11T10:20:10;100560.06;;;3.69;100.00
57114;BME280;42994;51.606;9.988;2023-02-11T10:22:44;100550.53;;;3.66;100.00
57114;BME280;42994;51.606;9.988;2023-02-11T10:25:19;100556.25;;;3.73;100.00
57114;BME280;42994;51.606;9.988;2023-02-11T10:27:46;100550.72;;;3.76;100.00
57114;BME280;42994;51.606;9.988;2023-02-11T10:30:20;100560.38;;;3.77;100.00
57114;BME280;42994;51.606;9.988;2023-02-11T10:32:53;100547.13;;;3.77;100.00
57114;BME280;42994;51.606;9.988;2023-02-11T10:35:22;100563.78;;;3.79;100.00
57114;BME280;42994;51.606;9.988;2023-02-11T10:37:49;100552.09;;;3.81;100.00
57114;BME280;42994;51.606;9.988;2023-02-11T10:40:17;100545.72;;;3.84;100.00
57114;BME280;42994;51.606;9.988;2023-02-11T10:42:47;100556.13;;;3.87;100.00
57114;BME280;42994;51.606;9.988;2023-02-11T10:45:18;100554.94;;;3.91;100.00
57114;BME280;42994;51.606;9.988;2023-02-11T10:47:48;100546.78;;;3.94;100.00
57114;BME280;42994;51.606;9.988;2023-02-11T10:50:23;100544.72;;;3.98;100.00
57114;BME280;42994;51.606;9.988;2023-02-11T10:52:50;100553.53;;;3.98;100.00
57114;BME280;42994;51.606;9.988;2023-02-11T10:55:18;100541.13;;;3.99;100.00
57114;BME280;42994;51.606;9.988;2023-02-11T10:57:52;100534.72;;;4.01;100.00
57114;BME280;42994;51.606;9.988;2023-02-11T11:00:32;100545.13;;;4.04;100.00
57114;BME280;42994;51.606;9.988;2023-02-11T11:03:04;100541.53;;;4.06;100.00
57114;BME280;42994;51.606;9.988;2023-02-11T11:05:32;100539.59;;;4.08;100.00
57114;BME280;42994;51.606;9.988;2023-02-11T11:08:03;100539.25;;;4.12;100.00
57114;BME280;42994;51.606;9.988;2023-02-11T11:10:36;100547.72;;;4.17;100.00
57114;BME280;42994;51.606;9.988;2023-02-11T11:13:23;100537.72;;;4.21;100.00
57114;BME280;42994;51.606;9.988;2023-02-11T11:16:19;100536.53;;;4.25;100.00
57114;BME280;42994;51.606;9.988;2023-02-11T11:18:49;100545.00;;;4.30;100.00
57114;BME280;42994;51.606;9.988;2023-02-11T11:21:19;100535.22;;;4.31;100.00
57114;BME280;42994;51.606;9.988;2023-02-11T11:23:49;100540.44;;;4.32;100.00
57114;BME280;42994;51.606;9.988;2023-02-11T11:26:16;100537.66;;;4.34;100.00
57114;BME280;42994;51.606;9.988;2023-02-11T11:28:51;100544.31;;;4.39;100.00
57114;BME280;42994;51.606;9.988;2023-02-11T11:31:21;100552.28;;;4.39;100.00
57114;BME280;42994;51.606;9.988;2023-02-11T11:33:53;100552.81;;;4.45;100.00
57114;BME280;42994;51.606;9.988;2023-02-11T11:36:23;100553.63;;;4.45;100.00
57114;BME280;42994;51.606;9.988;2023-02-11T11:38:53;100539.19;;;4.49;100.00
57114;BME280;42994;51.606;9.988;2023-02-11T11:41:25;100538.84;;;4.54;100.00
57114;BME280;42994;51.606;9.988;2023-02-11T11:44:16;100539.34;;;4.59;100.00
57114;BME280;42994;51.606;9.988;2023-02-11T11:46:48;100534.03;;;4.59;100.00
57114;BME280;42994;51.606;9.988;2023-02-11T11:49:27;100526.91;;;4.59;100.00
57114;BME280;42994;51.606;9.988;2023-02-11T11:52:07;100528.34;;;4.63;100.00
57114;BME280;42994;51.606;9.988;2023-02-11T11:54:36;100528.25;;;4.65;100.00
57114;BME280;42994;51.606;9.988;2023-02-11T11:57:14;100530.16;;;4.63;100.00
57114;BME280;42994;51.606;9.988;2023-02-11T11:59:42;100541.53;;;4.65;100.00
57114;BME280;42994;51.606;9.988;2023-02-11T12:05:14;100530.91;;;4.65;100.00
57114;BME280;42994;51.606;9.988;2023-02-11T12:07:55;100528.97;;;4.67;100.00
57114;BME280;42994;51.606;9.988;2023-02-11T12:10:39;100532.50;;;4.68;100.00
57114;BME280;42994;51.606;9.988;2023-02-11T12:13:25;100527.91;;;4.70;100.00
57114;BME280;42994;51.606;9.988;2023-02-11T12:16:01;100526.09;;;4.70;100.00
57114;BME280;42994;51.606;9.988;2023-02-11T12:18:50;100530.44;;;4.71;100.00
57114;BME280;42994;51.606;9.988;2023-02-11T12:21:26;100527.78;;;4.71;100.00
57114;BME280;42994;51.606;9.988;2023-02-11T12:24:05;100529.47;;;4.72;100.00
57114;BME280;42994;51.606;9.988;2023-02-11T12:26:42;100521.38;;;4.74;100.00
57114;BME280;42994;51.606;9.988;2023-02-11T12:29:19;100534.34;;;4.78;100.00
57114;BME280;42994;51.606;9.988;2023-02-11T12:31:56;100534.09;;;4.81;100.00
57114;BME280;42994;51.606;9.988;2023-02-11T12:34:41;100528.78;;;4.81;100.00
57114;BME280;42994;51.606;9.988;2023-02-11T12:37:21;100524.31;;;4.82;100.00
57114;BME280;42994;51.606;9.988;2023-02-11T12:39:55;100524.69;;;4.89;100.00
57114;BME280;42994;51.606;9.988;2023-02-11T12:42:54;100523.63;;;4.91;100.00
57114;BME280;42994;51.606;9.988;2023-02-11T12:46:04;100531.22;;;4.96;100.00
57114;BME280;42994;51.606;9.988;2023-02-11T12:48:51;100529.06;;;5.01;100.00
57114;BME280;42994;51.606;9.988;2023-02-11T12:51:26;100528.84;;;5.04;100.00
57114;BME280;42994;51.606;9.988;2023-02-11T12:54:24;100524.34;;;5.05;100.00
57114;BME280;42994;51.606;9.988;2023-02-11T12:56:58;100522.19;;;5.10;100.00
57114;BME280;42994;51.606;9.988;2023-02-11T12:59:33;100513.22;;;5.11;100.00
57114;BME280;42994;51.606;9.988;2023-02-11T13:02:13;100516.63;;;5.13;100.00
57114;BME280;42994;51.606;9.988;2023-02-11T13:04:46;100521.94;;;5.13;100.00
57114;BME280;42994;51.606;9.988;2023-02-11T13:07:20;100507.69;;;5.14;100.00
57114;BME280;42994;51.606;9.988;2023-02-11T13:09:53;100511.31;;;5.13;100.00
57114;BME280;42994;51.606;9.988;2023-02-11T13:12:23;100522.53;;;5.16;100.00
57114;BME280;42994;51.606;9.988;2023-02-11T13:15:12;100519.75;;;5.18;100.00
57114;BME280;42994;51.606;9.988;2023-02-11T13:17:44;100510.94;;;5.17;100.00